createdAt,value
2022-11-24T00:00:35.284Z,996.29
2022-11-24T00:01:35.311Z,996.23
2022-11-24T00:02:35.374Z,996.20
2022-11-24T00:03:35.505Z,996.20
2022-11-24T00:04:35.562Z,996.18
2022-11-24T00:05:35.232Z,996.17
2022-11-24T00:06:35.268Z,996.18
2022-11-24T00:08:55.097Z,996.22
2022-11-24T00:09:56.179Z,996.25
2022-11-24T00:10:56.090Z,996.21
2022-11-24T00:11:56.062Z,996.17
2022-11-24T00:12:56.050Z,996.22
2022-11-24T00:13:56.046Z,996.27
2022-11-24T00:14:56.042Z,996.25
2022-11-24T00:15:56.005Z,996.26
2022-11-24T00:16:56.169Z,996.24
2022-11-24T00:17:55.997Z,996.27
2022-11-24T00:18:55.975Z,996.30
2022-11-24T00:19:55.951Z,996.28
2022-11-24T00:20:55.939Z,996.30
2022-11-24T00:21:56.390Z,996.28
2022-11-24T00:22:55.929Z,996.32
2022-11-24T00:23:55.925Z,996.30
2022-11-24T00:24:55.887Z,996.34
2022-11-24T00:25:55.871Z,996.32
2022-11-24T00:26:55.876Z,996.39
2022-11-24T00:27:55.850Z,996.37
2022-11-24T00:28:55.830Z,996.37
2022-11-24T00:29:55.831Z,996.39
2022-11-24T00:30:55.844Z,996.35
2022-11-24T00:31:55.800Z,996.40
2022-11-24T00:32:56.088Z,996.35
2022-11-24T00:33:55.803Z,996.45
2022-11-24T00:34:55.755Z,996.37
2022-11-24T00:35:55.740Z,996.40
2022-11-24T00:36:55.745Z,996.39
2022-11-24T00:37:55.716Z,996.40
2022-11-24T00:38:55.726Z,996.39
2022-11-24T00:39:55.686Z,996.41
2022-11-24T00:40:55.683Z,996.32
2022-11-24T00:41:55.683Z,996.36
2022-11-24T00:42:55.962Z,996.38
2022-11-24T00:43:55.641Z,996.35
2022-11-24T00:44:55.643Z,996.34
2022-11-24T00:45:55.727Z,996.31
2022-11-24T00:46:55.736Z,996.33
2022-11-24T00:47:55.601Z,996.40
2022-11-24T00:48:55.600Z,996.38
2022-11-24T00:49:55.612Z,996.42
2022-11-24T00:50:55.556Z,996.39
2022-11-24T00:51:55.567Z,996.46
2022-11-24T00:52:55.874Z,996.39
2022-11-24T00:53:55.501Z,996.37
2022-11-24T00:54:55.500Z,996.37
2022-11-24T00:55:55.463Z,996.42
2022-11-24T00:56:55.455Z,996.38
2022-11-24T00:57:55.456Z,996.44
2022-11-24T00:58:55.447Z,996.41
2022-11-24T00:59:56.248Z,996.41
2022-11-24T01:00:55.547Z,996.41
2022-11-24T01:01:55.423Z,996.44
2022-11-24T01:02:55.484Z,996.43
2022-11-24T01:03:55.391Z,996.43
2022-11-24T01:04:55.359Z,996.49
2022-11-24T01:05:55.331Z,996.48
2022-11-24T01:06:55.499Z,996.54
2022-11-24T01:07:55.895Z,996.48
2022-11-24T01:08:55.644Z,996.54
2022-11-24T01:09:55.307Z,996.53
2022-11-24T01:10:55.273Z,996.56
2022-11-24T01:11:55.271Z,996.58
2022-11-24T01:12:55.420Z,996.55
2022-11-24T01:13:55.242Z,996.65
2022-11-24T01:14:55.217Z,996.62
2022-11-24T01:15:55.225Z,996.61
2022-11-24T01:16:55.242Z,996.56
2022-11-24T01:17:55.187Z,996.64
2022-11-24T01:18:55.175Z,996.65
2022-11-24T01:19:55.165Z,996.56
2022-11-24T01:20:55.409Z,996.60
2022-11-24T01:21:55.404Z,996.67
2022-11-24T01:22:55.143Z,996.63
2022-11-24T01:23:55.101Z,996.65
2022-11-24T01:24:55.129Z,996.62
2022-11-24T01:25:55.212Z,996.65
2022-11-24T01:26:55.323Z,996.66
2022-11-24T01:27:55.053Z,996.64
2022-11-24T01:28:55.043Z,996.68
2022-11-24T01:29:55.097Z,996.68
2022-11-24T01:30:55.071Z,996.71
2022-11-24T01:31:55.264Z,996.63
2022-11-24T01:32:55.244Z,996.68
2022-11-24T01:33:55.277Z,996.66
2022-11-24T01:34:54.954Z,996.73
2022-11-24T01:35:54.973Z,996.68
2022-11-24T01:36:54.953Z,996.71
2022-11-24T01:37:55.414Z,996.68
2022-11-24T01:38:54.912Z,996.73
2022-11-24T01:39:55.141Z,996.75
2022-11-24T01:40:54.875Z,996.70
2022-11-24T01:41:54.881Z,996.74
2022-11-24T01:42:54.885Z,996.75
2022-11-24T01:43:54.854Z,996.81
2022-11-24T01:44:54.851Z,996.75
2022-11-24T01:45:55.547Z,996.77
2022-11-24T01:46:55.036Z,996.77
2022-11-24T01:47:55.118Z,996.80
2022-11-24T01:48:55.091Z,996.76
2022-11-24T01:49:54.798Z,996.75
2022-11-24T01:50:54.757Z,996.79
2022-11-24T01:51:55.652Z,996.82
2022-11-24T01:52:54.749Z,996.79
2022-11-24T01:53:54.708Z,996.79
2022-11-24T01:54:54.704Z,996.81
2022-11-24T01:55:54.671Z,996.85
2022-11-24T01:56:54.679Z,996.79
2022-11-24T01:57:54.676Z,996.77
2022-11-24T01:58:54.639Z,996.78
2022-11-24T01:59:54.979Z,996.81
2022-11-24T02:00:54.778Z,996.81
2022-11-24T02:01:54.644Z,996.79
2022-11-24T02:02:54.624Z,996.78
2022-11-24T02:03:54.616Z,996.79
2022-11-24T02:04:54.684Z,996.80
2022-11-24T02:05:54.544Z,996.81
2022-11-24T02:06:54.522Z,996.79
2022-11-24T02:07:54.607Z,996.78
2022-11-24T02:08:54.535Z,996.81
2022-11-24T02:09:55.052Z,996.83
2022-11-24T02:10:54.475Z,996.81
2022-11-24T02:11:54.465Z,996.83
2022-11-24T02:12:54.449Z,996.89
2022-11-24T02:13:54.461Z,996.87
2022-11-24T02:14:54.442Z,996.91
2022-11-24T02:15:54.480Z,996.92
2022-11-24T02:16:54.473Z,996.94
2022-11-24T02:17:54.377Z,996.92
2022-11-24T02:18:54.398Z,997.00
2022-11-24T02:19:54.355Z,996.97
2022-11-24T02:20:54.343Z,997.00
2022-11-24T02:21:54.358Z,996.96
2022-11-24T02:22:54.310Z,997.00
2022-11-24T02:23:54.330Z,997.07
2022-11-24T02:24:54.294Z,997.06
2022-11-24T02:25:54.303Z,997.05
2022-11-24T02:26:54.271Z,997.04
2022-11-24T02:27:54.455Z,997.08
2022-11-24T02:28:54.244Z,997.08
2022-11-24T02:29:54.214Z,997.07
2022-11-24T02:30:54.267Z,997.14
2022-11-24T02:31:54.192Z,997.08
2022-11-24T02:32:54.183Z,997.10
2022-11-24T02:33:54.204Z,997.12
2022-11-24T03:00:34.343Z,997.32
2022-11-24T03:01:32.657Z,997.30
2022-11-24T03:02:32.652Z,997.30
2022-11-24T03:03:32.625Z,997.33
2022-11-24T03:04:33.011Z,997.32
2022-11-24T03:05:32.600Z,997.30
2022-11-24T03:06:31.545Z,997.32
2022-11-24T03:07:32.624Z,997.35
2022-11-24T03:08:32.519Z,997.35
2022-11-24T03:09:32.520Z,997.34
2022-11-24T03:10:32.507Z,997.33
2022-11-24T03:11:32.499Z,997.36
2022-11-24T03:12:32.478Z,997.36
2022-11-24T03:13:32.526Z,997.36
2022-11-24T03:14:32.905Z,997.38
2022-11-24T03:15:32.484Z,997.36
2022-11-24T03:16:32.436Z,997.37
2022-11-24T03:17:32.422Z,997.41
2022-11-24T03:18:32.392Z,997.36
2022-11-24T03:19:32.392Z,997.38
2022-11-24T03:20:32.378Z,997.41
2022-11-24T03:21:31.347Z,997.40
2022-11-24T03:22:32.363Z,997.43
2022-11-24T03:23:32.337Z,997.41
2022-11-24T03:24:31.495Z,997.41
2022-11-24T03:25:32.336Z,997.43
2022-11-24T04:47:59.653Z,998.09
2022-11-24T04:49:00.651Z,998.07
2022-11-24T05:09:47.936Z,998.33
2022-11-24T05:10:00.719Z,998.25
2022-11-24T05:17:26.873Z,998.39
2022-11-24T05:17:59.708Z,998.40
2022-11-24T05:18:59.746Z,998.44
2022-11-24T05:24:31.076Z,998.47
2022-11-24T05:31:22.854Z,998.59
2022-11-24T05:32:23.825Z,998.55
2022-11-24T05:36:54.576Z,998.72
2022-11-24T05:37:53.807Z,998.68
2022-11-24T05:38:53.796Z,998.70
2022-11-24T05:39:53.777Z,998.76
2022-11-24T05:40:53.808Z,998.76
2022-11-24T05:41:53.756Z,998.76
2022-11-24T05:42:53.755Z,998.77
2022-11-24T05:43:53.738Z,998.78
2022-11-24T05:44:53.713Z,998.82
2022-11-24T05:45:53.757Z,998.89
2022-11-24T05:46:53.789Z,998.88
2022-11-24T05:47:53.704Z,998.88
2022-11-24T05:48:53.674Z,998.86
2022-11-24T05:49:53.658Z,998.91
2022-11-24T05:50:53.650Z,998.90
2022-11-24T05:51:53.621Z,998.87
2022-11-24T05:52:53.614Z,998.91
2022-11-24T05:53:53.612Z,998.87
2022-11-24T05:54:53.599Z,998.90
2022-11-24T05:55:53.596Z,998.96
2022-11-24T05:56:53.558Z,998.95
2022-11-24T05:57:53.558Z,998.94
2022-11-24T05:58:53.543Z,998.96
2022-11-24T05:59:53.518Z,998.99
2022-11-24T06:00:53.532Z,998.98
2022-11-24T06:01:53.591Z,998.97
2022-11-24T06:02:53.573Z,999.01
2022-11-24T06:03:53.476Z,998.97
2022-11-24T06:04:53.462Z,999.02
2022-11-24T06:05:53.433Z,998.97
2022-11-24T06:06:53.438Z,998.93
2022-11-24T06:07:53.543Z,998.97
2022-11-24T06:08:53.415Z,999.03
2022-11-24T06:09:53.382Z,999.01
2022-11-24T06:10:53.392Z,999.01
2022-11-24T06:11:53.609Z,999.09
2022-11-24T06:12:53.361Z,999.05
2022-11-24T06:13:53.447Z,999.09
2022-11-24T06:14:53.348Z,999.09
2022-11-24T06:15:53.345Z,999.12
2022-11-24T06:16:53.350Z,999.14
2022-11-24T06:17:53.330Z,999.17
2022-11-24T06:18:53.288Z,999.15
2022-11-24T06:19:53.260Z,999.20
2022-11-24T06:21:09.811Z,999.22
2022-11-24T06:21:53.240Z,999.19
2022-11-24T06:22:53.219Z,999.21
2022-11-24T06:23:53.208Z,999.24
2022-11-24T06:24:53.192Z,999.28
2022-11-24T06:25:53.192Z,999.27
2022-11-24T06:26:53.158Z,999.30
2022-11-24T06:27:53.222Z,999.38
2022-11-24T06:28:53.150Z,999.33
2022-11-24T06:29:53.118Z,999.33
2022-11-24T06:30:53.115Z,999.32
2022-11-24T06:31:53.224Z,999.36
2022-11-24T06:32:53.098Z,999.38
2022-11-24T06:33:53.065Z,999.38
2022-11-24T06:34:53.075Z,999.35
2022-11-24T06:35:53.061Z,999.36
2022-11-24T06:36:54.120Z,999.36
2022-11-24T06:37:53.027Z,999.38
2022-11-24T06:38:52.999Z,999.41
2022-11-24T06:39:52.991Z,999.44
2022-11-24T06:40:52.972Z,999.45
2022-11-24T06:41:52.952Z,999.48
2022-11-24T06:42:52.972Z,999.49
2022-11-24T06:43:52.940Z,999.49
2022-11-24T06:44:52.927Z,999.50
2022-11-24T06:45:52.946Z,999.53
2022-11-24T06:46:52.888Z,999.52
2022-11-24T06:47:52.894Z,999.51
2022-11-24T06:48:52.880Z,999.58
2022-11-24T06:49:52.847Z,999.55
2022-11-24T06:50:52.836Z,999.61
2022-11-24T06:51:52.876Z,999.56
2022-11-24T06:52:52.825Z,999.54
2022-11-24T06:53:52.830Z,999.60
2022-11-24T06:54:52.783Z,999.62
2022-11-24T06:55:52.766Z,999.61
2022-11-24T06:56:52.788Z,999.60
2022-11-24T06:57:52.758Z,999.58
2022-11-24T06:58:52.787Z,999.61
2022-11-24T06:59:52.714Z,999.61
2022-11-24T07:00:52.746Z,999.55
2022-11-24T07:01:52.735Z,999.58
2022-11-24T07:02:52.742Z,999.62
2022-11-24T07:03:52.666Z,999.65
2022-11-24T07:04:52.664Z,999.64
2022-11-24T07:05:52.650Z,999.65
2022-11-24T07:06:52.624Z,999.68
2022-11-24T07:07:52.696Z,999.66
2022-11-24T07:08:52.618Z,999.69
2022-11-24T07:09:53.562Z,999.69
2022-11-24T07:10:52.570Z,999.70
2022-11-24T07:11:52.553Z,999.71
2022-11-24T07:12:52.558Z,999.77
2022-11-24T07:13:58.146Z,999.78
2022-11-24T07:14:52.516Z,999.81
2022-11-24T07:15:52.548Z,999.79
2022-11-24T07:16:53.514Z,999.80
2022-11-24T07:17:52.496Z,999.80
2022-11-24T07:18:52.473Z,999.86
2022-11-24T07:19:52.440Z,999.85
2022-11-24T07:20:52.436Z,999.85
2022-11-24T07:21:52.419Z,999.87
2022-11-24T07:22:52.421Z,999.87
2022-11-24T07:23:52.401Z,999.90
2022-11-24T07:24:52.391Z,999.89
2022-11-24T07:25:52.451Z,999.89
2022-11-24T07:26:52.378Z,999.91
2022-11-24T07:27:52.364Z,999.91
2022-11-24T07:28:52.360Z,999.86
2022-11-24T07:29:51.311Z,999.87
2022-11-24T07:30:52.310Z,999.92
2022-11-24T07:31:52.387Z,999.95
2022-11-24T07:32:52.289Z,999.95
2022-11-24T07:33:52.324Z,999.96
2022-11-24T07:34:52.264Z,999.99
2022-11-24T07:35:52.241Z,1000.02
2022-11-24T07:38:13.604Z,1000.00
2022-11-24T07:39:14.623Z,1000.00
2022-11-24T07:40:14.555Z,1000.07
2022-11-24T07:41:14.541Z,1000.05
2022-11-24T07:42:14.578Z,1000.04
2022-11-24T07:43:19.824Z,1000.03
2022-11-24T07:44:14.521Z,1000.06
2022-11-24T07:45:15.680Z,1000.02
2022-11-24T07:46:14.587Z,1000.09
2022-11-24T07:47:14.469Z,1000.09
2022-11-24T07:48:14.444Z,1000.14
2022-11-24T07:49:14.446Z,1000.19
2022-11-24T07:50:14.454Z,1000.20
2022-11-24T07:51:14.435Z,1000.24
2022-11-24T07:52:14.408Z,1000.22
2022-11-24T07:53:14.409Z,1000.30
2022-11-24T07:54:14.396Z,1000.28
2022-11-24T07:55:14.427Z,1000.29
2022-11-24T07:56:14.403Z,1000.34
2022-11-24T07:57:14.391Z,1000.37
2022-11-24T07:58:14.308Z,1000.33
2022-11-24T07:59:16.397Z,1000.37
2022-11-24T08:00:14.294Z,1000.40
2022-11-24T08:01:14.389Z,1000.41
2022-11-24T08:02:14.315Z,1000.42
2022-11-24T08:03:14.334Z,1000.43
2022-11-24T08:04:14.306Z,1000.46
2022-11-24T08:05:14.218Z,1000.42
2022-11-24T08:06:36.293Z,1000.43
2022-11-24T08:07:14.251Z,1000.51
2022-11-24T08:08:14.180Z,1000.53
2022-11-24T08:09:14.169Z,1000.44
2022-11-24T08:10:14.149Z,1000.53
2022-11-24T08:11:14.206Z,1000.50
2022-11-24T08:12:14.133Z,1000.53
2022-11-24T08:13:14.192Z,1000.51
2022-11-24T08:14:14.108Z,1000.49
2022-11-24T08:15:14.075Z,1000.57
2022-11-24T08:16:14.148Z,1000.56
2022-11-24T08:17:14.984Z,1000.54
2022-11-24T08:18:14.070Z,1000.57
2022-11-24T08:19:14.112Z,1000.56
2022-11-24T08:20:14.027Z,1000.56
2022-11-24T08:21:14.020Z,1000.58
2022-11-24T08:22:13.993Z,1000.55
2022-11-24T08:23:13.986Z,1000.59
2022-11-24T08:24:13.976Z,1000.64
2022-11-24T08:25:13.948Z,1000.60
2022-11-24T08:26:13.962Z,1000.64
2022-11-24T08:27:13.921Z,1000.66
2022-11-24T08:28:13.900Z,1000.65
2022-11-24T08:29:13.906Z,1000.67
2022-11-24T08:30:13.883Z,1000.70
2022-11-24T08:31:13.890Z,1000.73
2022-11-24T08:32:18.862Z,1000.72
2022-11-24T08:33:13.848Z,1000.73
2022-11-24T08:34:13.835Z,1000.83
2022-11-24T08:35:14.512Z,1000.75
2022-11-24T08:45:20.893Z,1000.98
2022-11-24T08:46:38.412Z,1000.99
2022-11-24T08:47:17.303Z,1000.98
2022-11-24T08:48:38.358Z,1001.02
2022-11-24T08:49:17.283Z,1000.97
2022-11-24T08:50:17.248Z,1000.97
2022-11-24T08:51:17.241Z,1001.02
2022-11-24T08:52:17.246Z,1001.00
2022-11-24T08:53:17.212Z,1000.98
2022-11-24T08:54:23.535Z,1000.99
2022-11-24T08:55:17.181Z,1001.01
2022-11-24T08:56:17.216Z,1000.99
2022-11-24T08:57:21.607Z,1001.02
2022-11-24T08:58:17.151Z,1001.03
2022-11-24T08:59:19.323Z,1001.07
2022-11-24T09:00:17.195Z,1001.08
2022-11-24T09:01:17.203Z,1001.15
2022-11-24T09:03:32.289Z,1001.11
2022-11-24T09:04:30.204Z,1001.20
2022-11-24T09:05:51.114Z,1001.15
2022-11-24T09:09:09.342Z,1001.29
2022-11-24T09:10:10.089Z,1001.22
2022-11-24T09:11:10.079Z,1001.25
2022-11-24T09:12:14.558Z,1001.27
2022-11-24T09:13:10.099Z,1001.31
2022-11-24T09:14:10.074Z,1001.31
2022-11-24T09:15:10.022Z,1001.28
2022-11-24T09:17:58.702Z,1001.38
2022-11-24T09:18:29.934Z,1001.36
2022-11-24T09:19:24.487Z,1001.38
2022-11-24T09:20:24.495Z,1001.38
2022-11-24T09:23:04.717Z,1001.51
2022-11-24T09:24:36.752Z,1001.48
2022-11-24T09:25:05.682Z,1001.47
2022-11-24T09:26:05.698Z,1001.51
2022-11-24T09:27:26.659Z,1001.53
2022-11-24T09:29:20.900Z,1001.56
2022-11-24T09:30:17.581Z,1001.61
2022-11-24T09:33:08.323Z,1001.63
2022-11-24T09:34:07.191Z,1001.61
2022-11-24T09:35:21.447Z,1001.65
2022-11-24T10:47:31.611Z,1002.51
2022-11-24T10:48:29.972Z,1002.51
2022-11-24T10:49:29.939Z,1002.57
2022-11-24T10:50:31.011Z,1002.50
2022-11-24T10:51:29.951Z,1002.50
2022-11-24T10:52:29.956Z,1002.57
2022-11-24T10:53:29.901Z,1002.60
2022-11-24T10:54:29.892Z,1002.62
2022-11-24T10:55:29.882Z,1002.62
2022-11-24T10:56:29.866Z,1002.66
2022-11-24T10:57:29.844Z,1002.62
2022-11-24T10:58:34.426Z,1002.69
2022-11-24T10:59:29.836Z,1002.66
2022-11-24T11:00:29.812Z,1002.69
2022-11-24T11:01:29.851Z,1002.70
2022-11-24T11:02:30.115Z,1002.72
2022-11-24T11:03:29.764Z,1002.75
2022-11-24T11:04:29.777Z,1002.75
2022-11-24T11:05:29.742Z,1002.77
2022-11-24T11:06:29.748Z,1002.73
2022-11-24T11:07:29.819Z,1002.76
2022-11-24T11:08:29.722Z,1002.75
2022-11-24T11:09:29.698Z,1002.70
2022-11-24T11:10:29.683Z,1002.67
2022-11-24T11:11:29.834Z,1002.69
2022-11-24T11:12:43.978Z,1002.67
2022-11-24T11:13:29.649Z,1002.77
2022-11-24T11:14:29.624Z,1002.76
2022-11-24T11:15:29.788Z,1002.71
2022-11-24T11:16:29.654Z,1002.71
2022-11-24T11:17:29.576Z,1002.75
2022-11-24T11:18:29.564Z,1002.78
2022-11-24T11:20:29.584Z,1002.79
2022-11-24T11:21:29.554Z,1002.82
2022-11-24T11:22:29.514Z,1002.82
2022-11-24T11:23:29.603Z,1002.81
2022-11-24T11:24:29.921Z,1002.83
2022-11-24T11:25:29.834Z,1002.84
2022-11-24T11:26:30.656Z,1002.85
2022-11-24T11:27:29.745Z,1002.83
2022-11-24T11:28:31.075Z,1002.78
2022-11-24T11:31:29.441Z,1002.83
2022-11-24T11:34:30.456Z,1002.83
2022-11-24T11:35:29.343Z,1002.85
2022-11-24T11:36:29.333Z,1002.85
2022-11-24T11:37:29.336Z,1002.87
2022-11-24T11:38:29.317Z,1002.88
2022-11-24T11:39:29.280Z,1002.94
2022-11-24T11:40:29.315Z,1002.94
2022-11-24T11:41:29.315Z,1002.96
2022-11-24T11:43:00.658Z,1002.89
2022-11-24T11:43:29.233Z,1002.94
2022-11-24T11:44:29.248Z,1002.98
2022-11-24T11:45:29.265Z,1002.94
2022-11-24T11:46:29.328Z,1002.96
2022-11-24T11:47:29.170Z,1003.00
2022-11-24T11:48:31.433Z,1002.95
2022-11-24T11:49:29.150Z,1002.96
2022-11-24T11:50:29.170Z,1002.95
2022-11-24T11:51:29.256Z,1002.99
2022-11-24T11:52:29.131Z,1003.01
2022-11-24T11:53:29.110Z,1003.06
2022-11-24T11:54:29.089Z,1003.08
2022-11-24T11:55:29.063Z,1003.05
2022-11-24T11:56:29.075Z,1003.06
2022-11-24T11:57:29.037Z,1003.08
2022-11-24T11:58:29.029Z,1003.08
2022-11-24T11:59:29.009Z,1003.07
2022-11-24T12:00:29.034Z,1003.09
2022-11-24T12:01:28.976Z,1003.09
2022-11-24T12:02:29.168Z,1003.12
2022-11-24T12:03:29.034Z,1003.15
2022-11-24T12:04:29.032Z,1003.12
2022-11-24T12:05:28.940Z,1003.12
2022-11-24T12:06:28.944Z,1003.19
2022-11-24T12:07:30.293Z,1003.19
2022-11-24T12:08:29.160Z,1003.25
2022-11-24T12:09:30.621Z,1003.22
2022-11-24T12:11:46.936Z,1003.23
2022-11-24T12:11:56.279Z,1003.24
2022-11-24T12:12:53.922Z,1003.28
2022-11-24T12:13:53.916Z,1003.24
2022-11-24T12:14:53.897Z,1003.28
2022-11-24T12:15:53.907Z,1003.22
2022-11-24T12:16:53.877Z,1003.17
2022-11-24T12:17:53.850Z,1003.21
2022-11-24T12:18:58.189Z,1003.20
2022-11-24T12:19:53.826Z,1003.22
2022-11-24T12:20:53.831Z,1003.21
2022-11-24T12:21:53.829Z,1003.19
2022-11-24T12:22:53.871Z,1003.16
2022-11-24T12:23:53.775Z,1003.20
2022-11-24T12:24:53.769Z,1003.22
2022-11-24T12:25:53.756Z,1003.21
2022-11-24T12:26:53.754Z,1003.20
2022-11-24T12:27:53.758Z,1003.19
2022-11-24T12:28:53.716Z,1003.22
2022-11-24T12:29:53.706Z,1003.25
2022-11-24T12:30:53.755Z,1003.21
2022-11-24T12:31:53.713Z,1003.17
2022-11-24T12:32:53.667Z,1003.23
2022-11-24T12:33:57.970Z,1003.18
2022-11-24T12:34:53.739Z,1003.24
2022-11-24T12:35:53.618Z,1003.21
2022-11-24T12:36:53.625Z,1003.24
2022-11-24T12:37:53.600Z,1003.21
2022-11-24T12:38:53.574Z,1003.20
2022-11-24T12:39:53.713Z,1003.21
2022-11-24T12:41:06.459Z,1003.22
2022-11-24T12:41:53.569Z,1003.27
2022-11-24T12:42:53.534Z,1003.22
2022-11-24T12:43:53.511Z,1003.25
2022-11-24T12:44:53.518Z,1003.23
2022-11-24T12:45:53.479Z,1003.25
2022-11-24T12:46:53.528Z,1003.29
2022-11-24T12:47:53.469Z,1003.25
2022-11-24T12:48:53.490Z,1003.22
2022-11-24T12:49:53.436Z,1003.25
2022-11-24T12:50:53.441Z,1003.32
2022-11-24T12:51:53.414Z,1003.32
2022-11-24T12:52:58.679Z,1003.33
2022-11-24T12:53:53.386Z,1003.27
2022-11-24T12:54:53.484Z,1003.26
2022-11-24T12:55:53.373Z,1003.21
2022-11-24T12:56:53.359Z,1003.17
2022-11-24T12:57:53.322Z,1003.25
2022-11-24T12:58:53.339Z,1003.21
2022-11-24T12:59:53.293Z,1003.27
2022-11-24T13:00:53.309Z,1003.24
2022-11-24T13:01:53.423Z,1003.26
2022-11-24T13:02:53.375Z,1003.25
2022-11-24T13:03:53.242Z,1003.30
2022-11-24T13:04:53.233Z,1003.33
2022-11-24T13:05:53.252Z,1003.30
2022-11-24T13:06:53.221Z,1003.32
2022-11-24T13:07:53.241Z,1003.29
2022-11-24T13:08:53.205Z,1003.29
2022-11-24T13:09:53.195Z,1003.26
2022-11-24T13:10:56.369Z,1003.29
2022-11-24T13:11:53.144Z,1003.32
2022-11-24T13:12:53.165Z,1003.31
2022-11-24T13:13:53.117Z,1003.28
2022-11-24T13:14:53.102Z,1003.28
2022-11-24T13:16:07.157Z,1003.33
2022-11-24T13:17:27.565Z,1003.29
2022-11-24T13:18:07.184Z,1003.28
2022-11-24T13:18:53.120Z,1003.33
2022-11-24T13:19:53.025Z,1003.24
2022-11-24T13:20:53.031Z,1003.28
2022-11-24T13:21:53.017Z,1003.30
2022-11-24T13:22:52.999Z,1003.26
2022-11-24T13:23:53.030Z,1003.27
2022-11-24T13:24:52.973Z,1003.28
2022-11-24T13:25:52.951Z,1003.31
2022-11-24T13:26:52.950Z,1003.24
2022-11-24T13:27:52.949Z,1003.26
2022-11-24T13:29:03.577Z,1003.23
2022-11-24T13:29:53.035Z,1003.17
2022-11-24T13:30:53.121Z,1003.20
2022-11-24T13:31:52.892Z,1003.19
2022-11-24T13:33:03.445Z,1003.17
2022-11-24T13:33:54.080Z,1003.16
2022-11-24T13:35:15.193Z,1003.23
2022-11-24T13:36:16.260Z,1003.26
2022-11-24T13:37:31.244Z,1003.25
2022-11-24T13:37:52.795Z,1003.30
2022-11-24T13:41:44.914Z,1003.35
2022-11-24T13:42:43.116Z,1003.39
2022-11-24T13:43:22.778Z,1003.37
2022-11-24T13:44:22.766Z,1003.40
2022-11-24T13:45:44.887Z,1003.44
2022-11-24T13:46:22.738Z,1003.39
2022-11-24T13:47:22.745Z,1003.42
2022-11-24T13:48:22.974Z,1003.41
2022-11-24T13:49:22.766Z,1003.41
2022-11-24T13:50:22.654Z,1003.41
2022-11-24T13:51:22.704Z,1003.47
2022-11-24T13:58:22.325Z,1003.49
2022-11-24T13:59:21.655Z,1003.44
2022-11-24T14:00:21.643Z,1003.45
2022-11-24T14:01:21.709Z,1003.42
2022-11-24T14:02:22.744Z,1003.41
2022-11-24T14:03:21.705Z,1003.44
2022-11-24T14:04:31.134Z,1003.41
2022-11-24T14:05:21.592Z,1003.47
2022-11-24T14:06:21.560Z,1003.45
2022-11-24T14:07:21.597Z,1003.47
2022-11-24T14:08:21.542Z,1003.41
2022-11-24T14:09:21.522Z,1003.45
2022-11-24T14:10:21.497Z,1003.44
2022-11-24T14:11:21.541Z,1003.46
2022-11-24T14:12:21.544Z,1003.45
2022-11-24T14:13:21.477Z,1003.45
2022-11-24T14:14:21.460Z,1003.53
2022-11-24T14:15:21.460Z,1003.50
2022-11-24T14:16:21.471Z,1003.54
2022-11-24T14:17:21.404Z,1003.55
2022-11-24T14:18:21.424Z,1003.54
2022-11-24T14:19:21.379Z,1003.59
2022-11-24T14:20:21.391Z,1003.53
2022-11-24T14:21:21.423Z,1003.58
2022-11-24T14:22:21.434Z,1003.56
2022-11-24T14:23:21.357Z,1003.57
2022-11-24T14:24:21.320Z,1003.55
2022-11-24T14:25:21.321Z,1003.57
2022-11-24T14:26:21.295Z,1003.52
2022-11-24T14:27:21.285Z,1003.53
2022-11-24T14:28:21.350Z,1003.53
2022-11-24T14:29:21.255Z,1003.48
2022-11-24T14:30:21.252Z,1003.52
2022-11-24T14:31:21.315Z,1003.53
2022-11-24T14:32:21.207Z,1003.51
2022-11-24T14:33:21.200Z,1003.53
2022-11-24T14:34:21.182Z,1003.51
2022-11-24T14:35:21.375Z,1003.55
2022-11-24T14:36:21.165Z,1003.57
2022-11-24T14:37:21.176Z,1003.53
2022-11-24T14:38:21.152Z,1003.52
2022-11-24T14:39:21.122Z,1003.59
2022-11-24T14:40:21.122Z,1003.60
2022-11-24T14:41:21.092Z,1003.61
2022-11-24T14:42:21.102Z,1003.63
2022-11-24T14:43:21.067Z,1003.62
2022-11-24T14:44:21.053Z,1003.70
2022-11-24T14:45:21.046Z,1003.72
2022-11-24T14:46:21.119Z,1003.70
2022-11-24T14:47:23.487Z,1003.70
2022-11-24T14:48:21.034Z,1003.67
2022-11-24T14:49:20.999Z,1003.65
2022-11-24T14:50:21.033Z,1003.65
2022-11-24T14:51:20.961Z,1003.68
2022-11-24T14:52:20.962Z,1003.68
2022-11-24T14:53:25.894Z,1003.70
2022-11-24T14:54:20.942Z,1003.67
2022-11-24T14:55:23.215Z,1003.68
2022-11-24T14:56:20.889Z,1003.68
2022-11-24T14:57:20.904Z,1003.73
2022-11-24T14:58:20.859Z,1003.70
2022-11-24T14:59:20.860Z,1003.69
2022-11-24T15:00:20.885Z,1003.73
2022-11-24T15:01:20.946Z,1003.74
2022-11-24T15:02:20.890Z,1003.74
2022-11-24T15:03:20.787Z,1003.74
2022-11-24T15:04:46.269Z,1003.76
2022-11-24T15:05:20.781Z,1003.78
2022-11-24T15:06:20.779Z,1003.78
2022-11-24T15:07:20.790Z,1003.82
2022-11-24T15:08:20.726Z,1003.81
2022-11-24T15:09:20.729Z,1003.89
2022-11-24T15:10:20.702Z,1003.87
2022-11-24T15:11:20.721Z,1003.88
2022-11-24T15:12:20.677Z,1003.90
2022-11-24T15:13:20.670Z,1003.89
2022-11-24T15:14:20.651Z,1003.87
2022-11-24T15:16:36.630Z,1003.99
2022-11-24T15:17:37.573Z,1003.94
2022-11-24T15:18:37.623Z,1003.97
2022-11-24T15:19:37.527Z,1003.99
2022-11-24T15:22:06.516Z,1003.98
2022-11-24T15:22:50.692Z,1004.03
2022-11-24T15:23:50.699Z,1003.99
2022-11-24T15:24:50.654Z,1004.02
2022-11-24T15:25:50.642Z,1003.98
2022-11-24T15:26:50.635Z,1003.97
2022-11-24T15:27:50.660Z,1003.97
2022-11-24T15:28:50.632Z,1003.94
2022-11-24T15:29:50.604Z,1003.93
2022-11-24T15:30:50.575Z,1003.94
2022-11-24T15:31:52.860Z,1003.88
2022-11-24T15:32:50.564Z,1003.94
2022-11-24T15:33:50.572Z,1003.94
2022-11-24T15:34:50.533Z,1003.96
2022-11-24T15:35:50.529Z,1003.94
2022-11-24T15:36:50.503Z,1003.91
2022-11-24T15:37:50.504Z,1003.93
2022-11-24T15:38:50.482Z,1003.99
2022-11-24T15:39:50.497Z,1003.95
2022-11-24T15:40:50.484Z,1004.00
2022-11-24T15:41:50.486Z,1004.04
2022-11-24T15:42:50.432Z,1004.00
2022-11-24T15:43:50.407Z,1003.96
2022-11-24T15:44:50.402Z,1003.95
2022-11-24T15:45:50.407Z,1003.91
2022-11-24T15:46:50.393Z,1003.97
2022-11-24T15:47:50.371Z,1003.96
2022-11-24T15:48:50.343Z,1003.94
2022-11-24T15:49:50.343Z,1004.02
2022-11-24T15:50:50.318Z,1004.04
2022-11-24T15:51:50.319Z,1004.04
2022-11-24T15:52:50.303Z,1004.05
2022-11-24T15:53:51.145Z,1004.07
2022-11-24T15:54:50.348Z,1004.10
2022-11-24T15:55:50.261Z,1004.08
2022-11-24T15:56:50.321Z,1004.13
2022-11-24T15:57:50.245Z,1004.18
2022-11-24T15:58:50.207Z,1004.13
2022-11-24T15:59:50.197Z,1004.12
2022-11-24T16:00:50.359Z,1004.10
2022-11-24T16:01:50.343Z,1004.12
2022-11-24T16:02:50.172Z,1004.15
2022-11-24T16:03:50.159Z,1004.17
2022-11-24T16:04:50.173Z,1004.19
2022-11-24T16:05:50.118Z,1004.20
2022-11-24T16:06:50.105Z,1004.20
2022-11-24T16:07:50.175Z,1004.29
2022-11-24T16:08:50.079Z,1004.29
2022-11-24T16:09:50.175Z,1004.32
2022-11-24T16:10:50.052Z,1004.30
2022-11-24T16:11:50.051Z,1004.33
2022-11-24T16:12:50.032Z,1004.34
2022-11-24T16:13:53.060Z,1004.36
2022-11-24T16:14:50.000Z,1004.42
2022-11-24T16:15:50.115Z,1004.41
2022-11-24T16:16:50.034Z,1004.39
2022-11-24T16:17:50.003Z,1004.38
2022-11-24T16:18:49.940Z,1004.37
2022-11-24T16:19:59.803Z,1004.38
2022-11-24T16:20:49.937Z,1004.35
2022-11-24T16:21:49.913Z,1004.37
2022-11-24T16:22:49.890Z,1004.41
2022-11-24T16:23:49.883Z,1004.39
2022-11-24T16:24:49.904Z,1004.38
2022-11-24T16:25:49.855Z,1004.43
2022-11-24T16:26:49.860Z,1004.44
2022-11-24T16:27:49.856Z,1004.44
2022-11-24T16:28:49.836Z,1004.41
2022-11-24T16:29:49.804Z,1004.40
2022-11-24T16:30:49.815Z,1004.39